createdAt,value
2018-03-21T00:02:17.822Z,2.20
2018-03-21T00:04:44.139Z,3.58
2018-03-21T00:07:10.500Z,3.78
2018-03-21T00:09:37.609Z,6.35
2018-03-21T00:12:04.041Z,1.70
2018-03-21T00:14:30.342Z,4.32
2018-03-21T00:16:58.303Z,6.60
2018-03-21T00:19:24.654Z,7.00
2018-03-21T00:21:50.988Z,6.75
2018-03-21T00:24:17.423Z,5.25
2018-03-21T00:26:43.755Z,4.10
2018-03-21T00:29:10.175Z,3.80
2018-03-21T00:31:36.507Z,2.65
2018-03-21T00:34:02.864Z,1.37
2018-03-21T00:36:29.964Z,4.32
2018-03-21T00:38:56.388Z,14.45
2018-03-21T00:41:22.740Z,3.75
2018-03-21T00:43:49.101Z,6.28
2018-03-21T00:46:15.431Z,2.03
2018-03-21T00:48:41.812Z,1.77
2018-03-21T00:51:08.199Z,5.53
2018-03-21T00:53:34.521Z,2.50
2018-03-21T00:56:01.624Z,6.93
2018-03-21T00:58:28.806Z,3.05
2018-03-21T01:00:55.155Z,3.28
2018-03-21T01:03:21.538Z,6.37
2018-03-21T01:05:48.007Z,2.47
2018-03-21T01:08:14.395Z,17.40
2018-03-21T01:10:40.779Z,5.00
2018-03-21T01:13:07.119Z,12.05
2018-03-21T01:15:34.212Z,5.50
2018-03-21T01:18:00.534Z,5.75
2018-03-21T01:20:26.878Z,2.75
2018-03-21T01:22:53.236Z,1.80
2018-03-21T01:25:19.613Z,5.10
2018-03-21T01:27:46.717Z,3.60
2018-03-21T01:30:13.119Z,4.82
2018-03-21T01:32:39.489Z,4.93
2018-03-21T01:35:06.489Z,3.47
2018-03-21T01:37:33.638Z,3.33
2018-03-21T01:39:59.999Z,8.13
2018-03-21T01:42:26.322Z,7.10
2018-03-21T01:44:52.738Z,4.10
2018-03-21T01:47:19.062Z,7.22
2018-03-21T01:49:46.181Z,4.20
2018-03-21T01:52:12.534Z,6.53
2018-03-21T01:54:39.640Z,1.58
2018-03-21T01:57:06.034Z,2.10
2018-03-21T01:59:32.364Z,3.37
2018-03-21T02:01:58.744Z,3.47
2018-03-21T02:04:25.070Z,4.03
2018-03-21T02:06:51.430Z,11.02
2018-03-21T02:09:17.771Z,3.60
2018-03-21T02:11:44.171Z,19.90
2018-03-21T02:14:10.509Z,3.55
2018-03-21T02:16:36.867Z,2.75
2018-03-21T02:19:03.239Z,2.85
2018-03-21T02:21:30.356Z,2.30
2018-03-21T02:23:56.706Z,5.22
2018-03-21T02:26:23.107Z,4.00
2018-03-21T02:28:50.260Z,5.80
2018-03-21T02:31:17.392Z,7.10
2018-03-21T02:33:43.833Z,4.85
2018-03-21T02:36:10.224Z,6.70
2018-03-21T02:38:36.591Z,7.32
2018-03-21T02:41:02.981Z,3.10
2018-03-21T02:43:29.307Z,5.32
2018-03-21T02:45:55.671Z,2.50
2018-03-21T02:48:22.804Z,13.45
2018-03-21T02:50:49.158Z,3.85
2018-03-21T02:53:15.554Z,5.70
2018-03-21T02:55:42.662Z,4.15
2018-03-21T02:58:09.013Z,4.10
2018-03-21T03:00:35.351Z,5.35
2018-03-21T03:03:01.770Z,4.35
2018-03-21T03:05:28.159Z,10.93
2018-03-21T03:07:55.302Z,3.20
2018-03-21T03:10:21.675Z,9.40
2018-03-21T03:12:48.051Z,11.15
2018-03-21T03:15:15.112Z,21.70
2018-03-21T03:17:41.498Z,4.20
2018-03-21T03:20:08.341Z,7.45
2018-03-21T03:22:34.725Z,7.05
2018-03-21T03:25:01.054Z,5.75
2018-03-21T03:27:27.419Z,4.70
2018-03-21T03:29:53.816Z,11.25
2018-03-21T03:32:20.236Z,12.10
2018-03-21T03:34:46.594Z,12.77
2018-03-21T03:37:12.960Z,9.55
2018-03-21T03:39:40.132Z,6.03
2018-03-21T03:42:06.495Z,8.63
2018-03-21T03:44:33.601Z,14.35
2018-03-21T03:46:59.969Z,12.55
2018-03-21T03:49:26.352Z,13.23
2018-03-21T03:51:53.458Z,8.25
2018-03-21T03:54:19.857Z,29.98
2018-03-21T03:56:46.962Z,9.35
2018-03-21T03:59:13.310Z,30.27
2018-03-21T04:01:39.644Z,31.75
2018-03-21T04:04:06.003Z,25.37
2018-03-21T04:06:32.314Z,17.52
2018-03-21T04:08:58.688Z,19.30
2018-03-21T04:11:25.808Z,23.48
2018-03-21T04:13:52.186Z,25.35
2018-03-21T04:16:18.576Z,17.02
2018-03-21T04:18:45.019Z,40.35
2018-03-21T04:21:11.474Z,44.20
2018-03-21T04:23:37.856Z,48.40
2018-03-21T04:26:05.039Z,34.35
2018-03-21T04:28:31.438Z,32.25
2018-03-21T04:30:57.773Z,34.95
2018-03-21T04:33:24.208Z,30.35
2018-03-21T04:35:51.284Z,34.92
2018-03-21T04:38:17.611Z,46.72
2018-03-21T04:40:44.021Z,41.75
2018-03-21T04:43:10.328Z,45.85
2018-03-21T04:45:36.695Z,22.17
2018-03-21T04:48:03.859Z,27.17
2018-03-21T04:50:30.291Z,23.12
2018-03-21T04:52:57.396Z,29.42
2018-03-21T04:55:23.780Z,49.38
2018-03-21T04:57:50.175Z,19.40
2018-03-21T05:00:17.296Z,16.50
2018-03-21T05:02:43.850Z,26.85
2018-03-21T05:05:10.272Z,19.87
2018-03-21T05:07:36.633Z,33.45
2018-03-21T05:10:03.497Z,21.30
2018-03-21T05:12:30.803Z,35.00
2018-03-21T05:14:57.236Z,45.22
2018-03-21T05:17:23.656Z,25.70
2018-03-21T05:19:50.086Z,40.92
2018-03-21T05:22:16.525Z,41.95
2018-03-21T05:24:43.909Z,32.83
2018-03-21T05:27:10.339Z,39.40
2018-03-21T05:29:37.499Z,30.77
2018-03-21T05:32:04.208Z,54.22
2018-03-21T05:34:30.710Z,37.08
2018-03-21T05:36:57.149Z,36.22
2018-03-21T05:39:23.576Z,42.00
2018-03-21T05:41:50.021Z,41.17
2018-03-21T05:44:17.473Z,47.75
2018-03-21T05:46:43.948Z,35.80
2018-03-21T05:49:10.343Z,41.08
2018-03-21T05:51:36.732Z,41.20
2018-03-21T05:54:03.917Z,39.78
2018-03-21T05:56:31.051Z,54.22
2018-03-21T05:58:57.465Z,50.88
2018-03-21T06:01:23.891Z,52.05
2018-03-21T06:03:50.314Z,120.55
2018-03-21T06:06:17.477Z,61.28
2018-03-21T06:08:43.866Z,119.00
2018-03-21T06:11:10.287Z,70.57
2018-03-21T06:13:36.742Z,130.15
2018-03-21T06:16:03.868Z,133.05
2018-03-21T06:18:30.332Z,41.42
2018-03-21T06:20:57.543Z,33.28
2018-03-21T06:23:23.967Z,24.58
2018-03-21T06:25:51.168Z,18.92
2018-03-21T06:28:18.283Z,20.83
2018-03-21T06:30:44.676Z,25.50
2018-03-21T06:33:11.082Z,18.17
2018-03-21T06:35:38.263Z,26.20
2018-03-21T06:38:04.801Z,27.27
2018-03-21T06:40:31.937Z,25.80
2018-03-21T06:42:58.381Z,21.02
2018-03-21T06:45:24.714Z,25.17
2018-03-21T06:47:51.176Z,19.70
2018-03-21T06:50:17.561Z,26.10
2018-03-21T06:52:43.955Z,17.63
2018-03-21T06:55:10.394Z,18.20
2018-03-21T06:57:36.761Z,25.13
2018-03-21T07:00:03.556Z,23.27
2018-03-21T07:02:30.051Z,36.30
2018-03-21T07:04:56.385Z,23.57
2018-03-21T07:07:22.815Z,21.60
2018-03-21T07:09:49.360Z,38.00
2018-03-21T07:12:15.716Z,24.03
2018-03-21T07:14:55.289Z,31.60
2018-03-21T07:17:21.639Z,22.40
2018-03-21T07:19:48.756Z,35.03
2018-03-21T07:22:15.192Z,25.07
2018-03-21T07:24:41.623Z,20.50
2018-03-21T07:27:08.038Z,25.57
2018-03-21T07:29:34.470Z,28.67
2018-03-21T07:32:00.860Z,26.30
2018-03-21T07:34:27.987Z,30.57
2018-03-21T07:36:54.439Z,29.93
2018-03-21T07:39:20.836Z,30.20
2018-03-21T07:41:47.289Z,19.30
2018-03-21T07:44:13.701Z,21.47
2018-03-21T07:46:40.125Z,22.30
2018-03-21T07:49:08.051Z,26.00
2018-03-21T07:51:35.332Z,12.57
2018-03-21T07:54:01.731Z,16.97
2018-03-21T07:56:28.166Z,10.70
2018-03-21T07:58:54.585Z,21.23
2018-03-21T08:01:21.731Z,18.57
2018-03-21T08:03:48.134Z,20.53
2018-03-21T08:06:14.492Z,15.57
2018-03-21T08:08:40.894Z,19.53
2018-03-21T08:11:08.024Z,20.90
2018-03-21T08:13:34.430Z,17.20
2018-03-21T08:16:01.565Z,22.33
2018-03-21T08:18:28.003Z,19.40
2018-03-21T08:20:54.434Z,25.17
2018-03-21T08:23:20.823Z,17.67
2018-03-21T08:25:47.255Z,26.40
2018-03-21T08:28:14.384Z,24.20
2018-03-21T08:30:40.804Z,25.77
2018-03-21T08:33:07.929Z,24.43
2018-03-21T08:35:34.358Z,19.33
2018-03-21T08:38:00.755Z,21.70
2018-03-21T08:40:27.172Z,20.80
2018-03-21T08:42:54.315Z,20.93
2018-03-21T08:45:20.786Z,22.23
2018-03-21T08:47:54.177Z,29.13
2018-03-21T08:50:21.409Z,19.43
2018-03-21T08:52:47.828Z,22.70
2018-03-21T08:55:14.961Z,21.80
2018-03-21T08:57:41.381Z,15.43
2018-03-21T09:00:07.857Z,16.93
2018-03-21T09:02:34.248Z,15.00
2018-03-21T09:05:00.644Z,31.10
2018-03-21T09:07:27.098Z,14.73
2018-03-21T09:09:53.593Z,14.23
2018-03-21T09:12:20.046Z,23.03
2018-03-21T09:14:46.586Z,16.10
2018-03-21T09:17:13.060Z,28.53
2018-03-21T09:19:39.461Z,23.67
2018-03-21T09:22:05.997Z,19.17
2018-03-21T09:24:32.416Z,16.90
2018-03-21T09:26:59.653Z,19.90
2018-03-21T09:29:26.087Z,38.23
2018-03-21T09:31:52.515Z,37.90
2018-03-21T09:34:19.663Z,30.90
2018-03-21T09:36:46.850Z,25.00
2018-03-21T09:39:13.219Z,15.03
2018-03-21T09:41:39.673Z,16.13
2018-03-21T09:44:06.070Z,14.70
2018-03-21T09:46:32.501Z,22.80
2018-03-21T09:48:59.677Z,15.43
2018-03-21T09:51:26.864Z,18.13
2018-03-21T09:53:53.263Z,26.27
2018-03-21T09:56:19.669Z,13.03
2018-03-21T09:58:46.151Z,16.53
2018-03-21T10:01:12.532Z,15.03
2018-03-21T10:03:38.970Z,21.27
2018-03-21T10:06:05.373Z,19.10
2018-03-21T10:08:32.527Z,24.13
2018-03-21T10:11:00.780Z,15.90
2018-03-21T10:13:27.950Z,15.67
2018-03-21T10:15:55.178Z,14.67
2018-03-21T10:18:21.681Z,17.60
2018-03-21T10:20:48.070Z,26.43
2018-03-21T10:23:14.537Z,20.43
2018-03-21T10:25:40.999Z,21.10
2018-03-21T10:28:07.495Z,20.63
2018-03-21T10:30:33.879Z,21.70
2018-03-21T10:33:00.279Z,19.80
2018-03-21T10:35:27.408Z,19.90
2018-03-21T10:37:53.860Z,19.70
2018-03-21T10:40:20.258Z,20.20
2018-03-21T10:42:46.737Z,16.53
2018-03-21T10:45:13.133Z,18.77
2018-03-21T10:47:39.631Z,15.13
2018-03-21T10:50:06.273Z,14.07
2018-03-21T10:52:38.912Z,13.10
2018-03-21T10:54:59.133Z,14.47
2018-03-21T10:57:25.561Z,14.07
2018-03-21T10:59:52.045Z,17.07
2018-03-21T11:02:18.533Z,11.00
2018-03-21T11:04:44.940Z,18.13
2018-03-21T11:07:11.372Z,13.77
2018-03-21T11:09:38.031Z,17.57
2018-03-21T11:12:05.127Z,17.43
2018-03-21T11:14:32.317Z,18.70
2018-03-21T11:16:58.710Z,17.83
2018-03-21T11:19:25.141Z,18.07
2018-03-21T11:21:52.321Z,10.17
2018-03-21T11:24:18.704Z,11.70
2018-03-21T11:26:45.846Z,35.97
2018-03-21T11:29:12.228Z,26.97
2018-03-21T11:31:38.619Z,24.37
2018-03-21T11:34:05.842Z,15.43
2018-03-21T11:36:32.191Z,16.57
2018-03-21T11:38:58.563Z,19.03
2018-03-21T11:41:26.435Z,12.50
2018-03-21T11:43:52.909Z,16.50
2018-03-21T11:46:19.381Z,24.43
2018-03-21T11:48:45.764Z,18.77
2018-03-21T11:51:12.154Z,21.63
2018-03-21T11:53:38.534Z,19.07
2018-03-21T11:56:04.974Z,16.60
2018-03-21T11:58:31.414Z,13.53
2018-03-21T12:00:58.658Z,11.47
2018-03-21T12:03:25.079Z,17.90
2018-03-21T12:05:52.298Z,6.60
2018-03-21T12:08:18.655Z,7.33
2018-03-21T12:10:45.169Z,11.50
2018-03-21T12:13:12.275Z,19.43
2018-03-21T12:15:38.680Z,15.50
2018-03-21T12:18:05.814Z,14.77
2018-03-21T12:20:32.219Z,13.97
2018-03-21T12:23:05.481Z,12.80
2018-03-21T12:25:32.094Z,10.13
2018-03-21T12:27:58.488Z,16.17
2018-03-21T12:30:25.646Z,11.90
2018-03-21T12:32:55.848Z,21.53
2018-03-21T12:35:22.235Z,13.00
2018-03-21T12:37:48.693Z,15.03
2018-03-21T12:40:15.135Z,16.40
2018-03-21T12:42:41.583Z,12.80
2018-03-21T12:45:07.940Z,16.03
2018-03-21T12:47:34.359Z,12.23
2018-03-21T12:50:00.762Z,11.77
2018-03-21T12:52:27.171Z,21.70
2018-03-21T12:54:53.536Z,10.93
2018-03-21T12:57:21.032Z,12.80
2018-03-21T12:59:47.456Z,14.90
2018-03-21T13:02:13.938Z,16.77
2018-03-21T13:04:40.416Z,14.03
2018-03-21T13:07:07.666Z,10.30
2018-03-21T13:09:35.491Z,13.77
2018-03-21T13:12:01.895Z,17.80
2018-03-21T13:14:29.035Z,16.23
2018-03-21T13:16:55.448Z,11.37
2018-03-21T13:19:22.530Z,15.90
2018-03-21T13:21:48.887Z,7.07
2018-03-21T13:24:15.241Z,8.53
2018-03-21T13:26:41.681Z,10.70
2018-03-21T13:29:08.834Z,12.73
2018-03-21T13:31:35.242Z,8.73
2018-03-21T13:34:01.599Z,10.00
2018-03-21T13:36:28.040Z,14.97
2018-03-21T13:38:54.435Z,11.03
2018-03-21T13:41:21.027Z,13.40
2018-03-21T13:43:47.444Z,9.90
2018-03-21T13:46:13.859Z,10.10
2018-03-21T13:48:40.307Z,17.10
2018-03-21T13:51:06.679Z,7.50
2018-03-21T13:53:34.574Z,15.73
2018-03-21T13:56:01.695Z,9.57
2018-03-21T13:58:28.109Z,7.23
2018-03-21T14:00:55.334Z,21.90
2018-03-21T14:03:21.780Z,9.13
2018-03-21T14:05:48.900Z,14.53
2018-03-21T14:08:15.376Z,10.90
2018-03-21T14:10:43.288Z,11.70
2018-03-21T14:13:09.665Z,15.80
2018-03-21T14:15:36.752Z,11.93
2018-03-21T14:18:03.324Z,10.03
2018-03-21T14:20:29.729Z,16.40
2018-03-21T14:22:56.155Z,8.40
2018-03-21T14:25:23.365Z,16.03
2018-03-21T14:27:49.803Z,13.13
2018-03-21T14:30:17.026Z,9.73
2018-03-21T14:32:43.435Z,10.33
2018-03-21T14:35:17.524Z,7.23
2018-03-21T14:37:44.668Z,9.10
2018-03-21T14:40:11.093Z,14.00
2018-03-21T14:42:38.431Z,9.73
2018-03-21T14:45:05.633Z,7.97
2018-03-21T14:47:31.999Z,12.20
2018-03-21T14:49:58.404Z,14.93
2018-03-21T14:52:24.802Z,12.40
2018-03-21T14:54:52.009Z,12.17
2018-03-21T14:57:18.407Z,9.73
2018-03-21T14:59:44.809Z,9.60
2018-03-21T15:02:11.222Z,8.30
2018-03-21T15:04:37.728Z,13.23
2018-03-21T15:07:04.179Z,9.67
2018-03-21T15:09:30.604Z,13.00
2018-03-21T15:11:57.027Z,8.43
2018-03-21T15:14:24.152Z,5.27
2018-03-21T15:16:50.569Z,14.20
2018-03-21T15:19:17.010Z,8.23
2018-03-21T15:21:43.414Z,13.73
2018-03-21T15:24:15.764Z,7.27
2018-03-21T15:26:42.233Z,10.67
2018-03-21T15:29:08.640Z,14.30
2018-03-21T15:31:35.064Z,10.13
2018-03-21T15:34:02.325Z,8.70
2018-03-21T15:36:28.793Z,11.43
2018-03-21T15:38:55.936Z,8.33
2018-03-21T15:41:22.353Z,13.23
2018-03-21T15:43:48.823Z,12.53
2018-03-21T15:46:15.260Z,20.10
2018-03-21T15:48:41.669Z,23.80
2018-03-21T15:51:08.814Z,12.13
2018-03-21T15:53:35.181Z,11.20
2018-03-21T15:56:01.632Z,7.97
2018-03-21T15:58:28.046Z,25.37
2018-03-21T16:00:54.514Z,13.00
2018-03-21T16:03:20.874Z,10.93
2018-03-21T16:05:48.003Z,9.40
2018-03-21T16:08:14.408Z,16.17
2018-03-21T16:10:41.548Z,13.70
2018-03-21T16:13:07.889Z,10.30
2018-03-21T16:15:34.325Z,17.40
2018-03-21T16:18:02.201Z,7.00
2018-03-21T16:20:29.335Z,11.67
2018-03-21T16:22:55.782Z,18.17
2018-03-21T16:25:22.230Z,9.73
2018-03-21T16:27:48.708Z,12.30
2018-03-21T16:30:15.077Z,9.47
2018-03-21T16:32:41.533Z,17.90
2018-03-21T16:35:07.904Z,11.87
2018-03-21T16:37:34.295Z,10.10
2018-03-21T16:40:00.679Z,14.83
2018-03-21T16:42:27.155Z,22.53
2018-03-21T16:44:53.585Z,10.40
2018-03-21T16:47:19.940Z,12.27
2018-03-21T16:49:47.052Z,14.73
2018-03-21T16:52:13.449Z,11.77
2018-03-21T16:54:39.870Z,12.33
2018-03-21T16:57:06.281Z,10.13
2018-03-21T16:59:32.671Z,11.93
2018-03-21T17:01:59.040Z,12.90
2018-03-21T17:04:26.880Z,8.80
2018-03-21T17:06:53.375Z,9.30
2018-03-21T17:09:20.520Z,11.00
2018-03-21T17:11:47.029Z,5.47
2018-03-21T17:14:14.403Z,17.10
2018-03-21T17:16:41.523Z,14.13
2018-03-21T17:19:07.890Z,6.60
2018-03-21T17:21:34.258Z,15.03
2018-03-21T17:24:01.465Z,8.20
2018-03-21T17:26:27.873Z,17.63
2018-03-21T17:28:54.618Z,16.33
2018-03-21T17:31:21.069Z,17.20
2018-03-21T17:33:48.215Z,16.07
2018-03-21T17:36:14.735Z,7.43
2018-03-21T17:38:41.906Z,8.30
2018-03-21T17:41:08.233Z,11.63
2018-03-21T17:43:34.592Z,5.80
2018-03-21T17:46:00.966Z,10.67
2018-03-21T17:48:27.385Z,13.77
2018-03-21T17:50:54.568Z,9.03
2018-03-21T17:53:21.006Z,12.30
2018-03-21T17:55:47.359Z,20.33
2018-03-21T17:58:13.775Z,9.70
2018-03-21T18:00:40.188Z,8.70
2018-03-21T18:03:06.614Z,15.13
2018-03-21T18:05:33.036Z,13.23
2018-03-21T18:07:59.412Z,15.83
2018-03-21T18:10:25.812Z,11.80
2018-03-21T18:12:52.918Z,7.20
2018-03-21T18:15:19.312Z,15.73
2018-03-21T18:17:46.393Z,5.47
2018-03-21T18:20:12.824Z,7.07
2018-03-21T18:22:39.949Z,12.33
2018-03-21T18:25:06.348Z,14.70
2018-03-21T18:27:33.542Z,11.70
2018-03-21T18:30:00.040Z,14.30
2018-03-21T18:32:26.416Z,8.67
2018-03-21T18:34:52.808Z,13.87
2018-03-21T18:37:19.160Z,13.30
2018-03-21T18:39:45.528Z,14.73
2018-03-21T18:42:11.871Z,11.80
2018-03-21T18:44:38.309Z,16.10
2018-03-21T18:47:04.713Z,17.30
2018-03-21T18:49:31.132Z,13.73
2018-03-21T18:51:57.539Z,21.43
2018-03-21T18:54:24.684Z,16.27
2018-03-21T18:56:51.061Z,13.83
2018-03-21T18:59:17.414Z,19.67
2018-03-21T19:01:43.792Z,13.17
2018-03-21T19:04:10.148Z,13.67
2018-03-21T19:06:36.580Z,15.57
2018-03-21T19:09:03.739Z,13.47
2018-03-21T19:11:30.109Z,13.90
2018-03-21T19:13:56.494Z,16.33
2018-03-21T19:16:22.865Z,14.60
2018-03-21T19:18:49.236Z,16.13
2018-03-21T19:21:15.596Z,15.07
2018-03-21T19:23:42.684Z,15.53
2018-03-21T19:26:09.081Z,16.57
2018-03-21T19:28:36.160Z,19.03
2018-03-21T19:31:02.483Z,15.17
2018-03-21T19:33:28.767Z,17.97
2018-03-21T19:35:55.099Z,17.00
2018-03-21T19:38:21.417Z,17.23
2018-03-21T19:40:47.796Z,15.00
2018-03-21T19:43:14.899Z,21.17
2018-03-21T19:45:41.302Z,12.37
2018-03-21T19:48:08.382Z,18.13
2018-03-21T19:50:35.565Z,12.90
2018-03-21T19:53:02.036Z,14.77
2018-03-21T19:55:29.116Z,19.03
2018-03-21T19:57:55.556Z,13.77
2018-03-21T20:00:21.882Z,16.70
2018-03-21T20:02:49.106Z,14.60
2018-03-21T20:05:15.407Z,19.47
2018-03-21T20:07:41.798Z,18.50
2018-03-21T20:10:08.217Z,14.23
2018-03-21T20:12:34.612Z,17.83
2018-03-21T20:15:00.997Z,10.93
2018-03-21T20:17:27.329Z,18.93
2018-03-21T20:19:53.691Z,17.17
2018-03-21T20:22:20.060Z,12.97
2018-03-21T20:24:46.439Z,16.17
2018-03-21T20:27:13.563Z,17.33
2018-03-21T20:29:39.884Z,22.20
2018-03-21T20:32:06.229Z,21.13
2018-03-21T20:34:32.544Z,16.50
2018-03-21T20:36:58.904Z,12.87
2018-03-21T20:39:25.248Z,19.83
2018-03-21T20:41:51.623Z,16.47
2018-03-21T20:44:18.003Z,19.93
2018-03-21T20:46:44.362Z,19.23
2018-03-21T20:49:11.435Z,12.90
2018-03-21T20:51:37.743Z,14.40
2018-03-21T20:54:04.575Z,15.37
2018-03-21T20:56:30.961Z,13.43
2018-03-21T20:58:57.364Z,14.73
2018-03-21T21:01:23.706Z,15.23
2018-03-21T21:03:50.057Z,20.23
2018-03-21T21:06:16.375Z,22.67
2018-03-21T21:08:42.716Z,15.10
2018-03-21T21:11:09.059Z,20.63
2018-03-21T21:13:35.367Z,15.00
2018-03-21T21:16:01.766Z,12.27
2018-03-21T21:18:28.111Z,21.97
2018-03-21T21:20:54.533Z,20.23
2018-03-21T21:23:20.962Z,15.33
2018-03-21T21:25:47.367Z,16.50
2018-03-21T21:28:13.730Z,15.60
2018-03-21T21:30:40.964Z,15.63
2018-03-21T21:33:07.307Z,19.77
2018-03-21T21:35:33.731Z,17.70
2018-03-21T21:38:00.162Z,20.53
2018-03-21T21:40:26.539Z,18.77
2018-03-21T21:42:52.876Z,23.63
2018-03-21T21:45:19.291Z,19.90
2018-03-21T21:47:45.606Z,15.47
2018-03-21T21:50:11.975Z,29.63
2018-03-21T21:52:38.352Z,21.30
2018-03-21T21:55:05.526Z,21.67
2018-03-21T21:57:32.649Z,18.00
2018-03-21T21:59:59.040Z,26.07
2018-03-21T22:02:26.127Z,39.17
2018-03-21T22:04:52.500Z,35.57
2018-03-21T22:07:18.902Z,21.40
2018-03-21T22:09:45.293Z,26.07
2018-03-21T22:12:17.708Z,19.27
2018-03-21T22:14:44.855Z,13.33
2018-03-21T22:17:11.948Z,15.93
2018-03-21T22:19:39.064Z,18.20
2018-03-21T22:22:06.887Z,15.47
2018-03-21T22:24:33.260Z,16.60
2018-03-21T22:26:59.587Z,14.60
2018-03-21T22:29:25.934Z,24.33
2018-03-21T22:31:52.281Z,28.43
2018-03-21T22:34:18.631Z,19.30
2018-03-21T22:36:45.025Z,19.13
2018-03-21T22:39:11.355Z,24.60
2018-03-21T22:41:37.711Z,16.00
2018-03-21T22:44:04.447Z,17.77
2018-03-21T22:46:30.856Z,23.80
2018-03-21T22:48:57.178Z,21.73
2018-03-21T22:51:23.547Z,21.97
2018-03-21T22:53:49.883Z,17.50
2018-03-21T22:56:16.243Z,25.30
2018-03-21T22:58:42.622Z,16.73
2018-03-21T23:01:08.972Z,37.23
2018-03-21T23:03:35.324Z,23.83
2018-03-21T23:06:01.659Z,26.43
2018-03-21T23:08:28.804Z,24.17
2018-03-21T23:10:55.142Z,19.90
2018-03-21T23:13:22.202Z,18.93
2018-03-21T23:15:48.590Z,21.27
2018-03-21T23:18:15.661Z,20.10
2018-03-21T23:20:42.019Z,22.80
2018-03-21T23:23:08.340Z,23.23
2018-03-21T23:25:34.696Z,21.20
2018-03-21T23:28:01.048Z,27.93
2018-03-21T23:30:28.880Z,23.17
2018-03-21T23:32:55.955Z,21.03
2018-03-21T23:35:22.300Z,21.13
2018-03-21T23:37:48.693Z,23.53
2018-03-21T23:40:15.889Z,23.60
2018-03-21T23:42:42.986Z,23.30
2018-03-21T23:45:09.316Z,23.73
2018-03-21T23:47:35.675Z,20.13
2018-03-21T23:50:02.029Z,24.27
2018-03-21T23:52:29.885Z,25.80
2018-03-21T23:54:56.261Z,24.40
2018-03-21T23:57:22.658Z,20.10
2018-03-21T23:59:48.988Z,20.60
